Thunder radar more information blitzortung!


Radar de pluja more information rain snow radar


Visita la nostra xarxa de llocs de meteo:

Template documentation
and downloads

And another site



Extreme low temperature From: 13-12-2017 09:00 Until: 09:59 warning for: Extreme low temperature Level: Yellow info button

Pagina Historial Weather Underground text

Diari Resum May 18, 2017 Unitats:  Tant    Imperial   Mètric
« Previous Dia
SegĂźent Dia »
Diari Setmana Mensual Anual Personalitzada
  Maxima: Minima: Media:
Temperatura: 79.7 °F /  26.5 °C 50 °F /  10.0 °C 64.4 °F /  18 °C
Punt de rosada: 55.6 °F /  13.1 °C 39.7 °F /  4.3 °C 49.8 °F /  9.9 °C
Humitat: 78 % 40 % 61 %
Wind Speed: 13.8 mph /  22.2 km/h - 4.3 mph /  6.9 km/h
RĂ fegues de vent: 13.8 mph /  22.2 km/h - -
Vent:- - SSW
Pression baro: 30.1 in /  1018.8 hPa 29.8 in /  1010.7 hPa -
Precipitacions: 0.05 in /  1.3 mm    
Historical Graphs
 
 
Dades de taula per May 18, 2017
Temps Temperatura Punt de rosada Pression baro Vent Wind Speed RĂ fegues de vent Humitat Rainfall Rate (Hourly)
00:03 65.3 °F /  18.5 °C 44.4 °F /  6.9 °C 30 in /  1015.8 hPa SW 1.2 mph /  1.9 km/h 1.2 mph /  1.9 km/h 47 % 0 in /  0.0 mm
00:05 57.2 °F /  14.0 °C 45.1 °F /  7.3 °C 30 in /  1014.8 hPa Calm   1 mph /  1.6 km/h 64 % 0 in /  0.0 mm
00:08 65.3 °F /  18.5 °C 44.4 °F /  6.9 °C 30 in /  1015.8 hPa SW 1.2 mph /  1.9 km/h   47 % 0 in /  0.0 mm
00:13 65.1 °F /  18.4 °C 45 °F /  7.2 °C 30 in /  1015.8 hPa Calm     48 % 0 in /  0.0 mm
00:15 56.7 °F /  13.7 °C 44.6 °F /  7.0 °C 29.9 in /  1013.8 hPa Calm   1 mph /  1.6 km/h 64 % 0 in /  0.0 mm
00:18 64.9 °F /  18.3 °C 44.8 °F /  7.1 °C 30 in /  1015.8 hPa Calm     48 % 0 in /  0.0 mm
00:23 64.8 °F /  18.2 °C 45.1 °F /  7.3 °C 30 in /  1015.8 hPa SW 1.2 mph /  1.9 km/h   49 % 0 in /  0.0 mm
00:25 56.5 °F /  13.6 °C 44.4 °F /  6.9 °C 30 in /  1014.8 hPa Calm     64 % 0 in /  0.0 mm
00:28 64.6 °F /  18.1 °C 45 °F /  7.2 °C 30 in /  1015.8 hPa Calm     49 % 0 in /  0.0 mm
00:33 64.4 °F /  18.0 °C 45.3 °F /  7.4 °C 30 in /  1015.8 hPa Calm     50 % 0 in /  0.0 mm
00:35 56.3 °F /  13.5 °C 44.2 °F /  6.8 °C 30 in /  1014.8 hPa Calm     64 % 0 in /  0.0 mm
00:38 64.4 °F /  18.0 °C 45.3 °F /  7.4 °C 30 in /  1015.8 hPa Calm     50 % 0 in /  0.0 mm
00:45 56.3 °F /  13.5 °C 44.2 °F /  6.8 °C 30 in /  1014.8 hPa Calm     64 % 0 in /  0.0 mm
00:55 56.3 °F /  13.5 °C 44.8 °F /  7.1 °C 30 in /  1014.8 hPa Calm     65 % 0 in /  0.0 mm
01:05 56.5 °F /  13.6 °C 44.4 °F /  6.9 °C 30 in /  1014.8 hPa SW 1 mph /  1.6 km/h 2 mph /  3.2 km/h 64 % 0 in /  0.0 mm
01:15 56.5 °F /  13.6 °C 44.4 °F /  6.9 °C 30 in /  1014.8 hPa WSW 1 mph /  1.6 km/h 2 mph /  3.2 km/h 64 % 0 in /  0.0 mm
01:25 55.8 °F /  13.2 °C 43.9 °F /  6.6 °C 30 in /  1014.8 hPa SW 1 mph /  1.6 km/h 2 mph /  3.2 km/h 64 % 0 in /  0.0 mm
01:35 55.6 °F /  13.1 °C 44.1 °F /  6.7 °C 30 in /  1014.8 hPa Calm   1 mph /  1.6 km/h 65 % 0 in /  0.0 mm
01:45 55.4 °F /  13.0 °C 44.2 °F /  6.8 °C 30 in /  1014.8 hPa Calm   2 mph /  3.2 km/h 66 % 0 in /  0.0 mm
01:55 55.4 °F /  13.0 °C 44.2 °F /  6.8 °C 30 in /  1014.8 hPa Calm   2 mph /  3.2 km/h 66 % 0 in /  0.0 mm
02:05 55.8 °F /  13.2 °C 44.6 °F /  7.0 °C 30 in /  1014.8 hPa SSE 1 mph /  1.6 km/h 2 mph /  3.2 km/h 66 % 0 in /  0.0 mm
02:15 56.5 °F /  13.6 °C 45.3 °F /  7.4 °C 30 in /  1014.8 hPa Calm   1 mph /  1.6 km/h 66 % 0 in /  0.0 mm
02:25 57 °F /  13.9 °C 45.3 °F /  7.4 °C 30 in /  1014.8 hPa SSW 2 mph /  3.2 km/h 2 mph /  3.2 km/h 65 % 0 in /  0.0 mm
02:35 57.2 °F /  14.0 °C 45.1 °F /  7.3 °C 30 in /  1014.8 hPa SW 2 mph /  3.2 km/h 2 mph /  3.2 km/h 64 % 0 in /  0.0 mm
02:55 58.1 °F /  14.5 °C 46 °F /  7.8 °C 30 in /  1014.8 hPa SW 2 mph /  3.2 km/h 2 mph /  3.2 km/h 64 % 0 in /  0.0 mm
03:05 58.5 °F /  14.7 °C 46.2 °F /  7.9 °C 30 in /  1014.8 hPa Calm   2 mph /  3.2 km/h 64 % 0 in /  0.0 mm
03:15 59.2 °F /  15.1 °C 46.6 °F /  8.1 °C 30 in /  1014.8 hPa SW 1 mph /  1.6 km/h 2 mph /  3.2 km/h 63 % 0 in /  0.0 mm
03:25 61 °F /  16.1 °C 47.5 °F /  8.6 °C 30 in /  1014.8 hPa SW 2 mph /  3.2 km/h 3 mph /  4.8 km/h 61 % 0 in /  0.0 mm
03:35 61.9 °F /  16.6 °C 47.8 °F /  8.8 °C 30 in /  1014.8 hPa ENE 2 mph /  3.2 km/h 3 mph /  4.8 km/h 60 % 0 in /  0.0 mm
03:45 63.1 °F /  17.3 °C 48 °F /  8.9 °C 30 in /  1014.8 hPa NE 1 mph /  1.6 km/h 3 mph /  4.8 km/h 58 % 0 in /  0.0 mm
03:55 64 °F /  17.8 °C 48 °F /  8.9 °C 30 in /  1014.8 hPa NE 2 mph /  3.2 km/h 3 mph /  4.8 km/h 56 % 0 in /  0.0 mm
04:05 65.3 °F /  18.5 °C 48.7 °F /  9.3 °C 30 in /  1014.8 hPa NE 1 mph /  1.6 km/h 3 mph /  4.8 km/h 55 % 0 in /  0.0 mm
04:15 65.3 °F /  18.5 °C 48.2 °F /  9.0 °C 30 in /  1015.8 hPa Calm   3 mph /  4.8 km/h 54 % 0 in /  0.0 mm
04:25 64.6 °F /  18.1 °C 47.7 °F /  8.7 °C 30 in /  1015.8 hPa NE 2 mph /  3.2 km/h 3 mph /  4.8 km/h 54 % 0 in /  0.0 mm
04:35 64.8 °F /  18.2 °C 47.7 °F /  8.7 °C 30 in /  1015.8 hPa NE 1 mph /  1.6 km/h 2 mph /  3.2 km/h 54 % 0 in /  0.0 mm
04:45 66 °F /  18.9 °C 48.9 °F /  9.4 °C 30 in /  1014.8 hPa ENE 3 mph /  4.8 km/h 4 mph /  6.4 km/h 54 % 0 in /  0.0 mm
04:55 66.2 °F /  19.0 °C 48.6 °F /  9.2 °C 30 in /  1015.8 hPa NE 3 mph /  4.8 km/h 4 mph /  6.4 km/h 53 % 0 in /  0.0 mm
05:10 67.8 °F /  19.9 °C 50.2 °F /  10.1 °C 30 in /  1015.8 hPa ENE 3 mph /  4.8 km/h 5 mph /  8.0 km/h 53 % 0 in /  0.0 mm
05:20 68.2 °F /  20.1 °C 50.4 °F /  10.2 °C 30 in /  1015.8 hPa ENE 5 mph /  8.0 km/h 6 mph /  9.7 km/h 53 % 0 in /  0.0 mm
05:30 68.4 °F /  20.2 °C 50.5 °F /  10.3 °C 30 in /  1014.8 hPa ENE 6 mph /  9.7 km/h 6 mph /  9.7 km/h 53 % 0 in /  0.0 mm
05:40 68.2 °F /  20.1 °C 50.4 °F /  10.2 °C 30 in /  1014.8 hPa ESE 5 mph /  8.0 km/h 5 mph /  8.0 km/h 53 % 0 in /  0.0 mm
10:44 68.5 °F /  20.3 °C 51.3 °F /  10.7 °C 30 in /  1014.8 hPa East 3.5 mph /  5.6 km/h 4 mph /  6.4 km/h 54 % 0 in /  0.0 mm
10:45 68.5 °F /  20.3 °C 51.3 °F /  10.7 °C 30 in /  1014.8 hPa East 3.5 mph /  5.6 km/h 4 mph /  6.4 km/h 54 % 0 in /  0.0 mm
10:46 68.7 °F /  20.4 °C 50.9 °F /  10.5 °C 30 in /  1014.8 hPa ENE 5.8 mph /  9.3 km/h 5.8 mph /  9.3 km/h 53 % 0 in /  0.0 mm
10:51 69.1 °F /  20.6 °C 51.6 °F /  10.9 °C 30 in /  1014.8 hPa ESE 6.2 mph /  10.0 km/h 6.2 mph /  10.0 km/h 54 % 0 in /  0.0 mm
10:56 69.6 °F /  20.9 °C 52.2 °F /  11.2 °C 30 in /  1014.8 hPa East 4.7 mph /  7.6 km/h 4.7 mph /  7.6 km/h 54 % 0 in /  0.0 mm
11:01 70 °F /  21.1 °C 52.5 °F /  11.4 °C 30 in /  1014.8 hPa SE 6.9 mph /  11.1 km/h 6.9 mph /  11.1 km/h 54 % 0 in /  0.0 mm
11:06 71.1 °F /  21.7 °C 53.1 °F /  11.7 °C 30 in /  1014.8 hPa SE 5.8 mph /  9.3 km/h 5.8 mph /  9.3 km/h 53 % 0 in /  0.0 mm
11:11 71.2 °F /  21.8 °C 53.2 °F /  11.8 °C 30 in /  1014.8 hPa ESE 5.8 mph /  9.3 km/h 5.8 mph /  9.3 km/h 53 % 0 in /  0.0 mm
11:12 71.2 °F /  21.8 °C 53.2 °F /  11.8 °C 30 in /  1014.8 hPa SE 5.6 mph /  9.0 km/h 5.6 mph /  9.0 km/h 53 % 0 in /  0.0 mm
11:17 71.2 °F /  21.8 °C 53.8 °F /  12.1 °C 30 in /  1014.8 hPa WSW 4.7 mph /  7.6 km/h 4.7 mph /  7.6 km/h 54 % 0 in /  0.0 mm
11:22 71.8 °F /  22.1 °C 53.8 °F /  12.1 °C 30 in /  1014.8 hPa NNE 4.9 mph /  7.9 km/h 4.9 mph /  7.9 km/h 53 % 0 in /  0.0 mm
11:27 71.6 °F /  22.0 °C 53.6 °F /  12.0 °C 30 in /  1014.8 hPa East 5.8 mph /  9.3 km/h 5.8 mph /  9.3 km/h 53 % 0 in /  0.0 mm
11:32 71.6 °F /  22.0 °C 53.6 °F /  12.0 °C 30 in /  1014.8 hPa SSE 4.6 mph /  7.4 km/h 4.6 mph /  7.4 km/h 53 % 0 in /  0.0 mm
11:37 72.3 °F /  22.4 °C 54.1 °F /  12.3 °C 30 in /  1014.8 hPa SE 5.8 mph /  9.3 km/h 5.8 mph /  9.3 km/h 53 % 0 in /  0.0 mm
11:42 72.3 °F /  22.4 °C 54.1 °F /  12.3 °C 29.9 in /  1013.8 hPa ENE 8.1 mph /  13.0 km/h 8.1 mph /  13.0 km/h 53 % 0 in /  0.0 mm
11:47 72.7 °F /  22.6 °C 54.7 °F /  12.6 °C 29.9 in /  1013.8 hPa ENE 5.9 mph /  9.5 km/h 5.9 mph /  9.5 km/h 53 % 0 in /  0.0 mm
11:52 72.5 °F /  22.5 °C 54.3 °F /  12.4 °C 29.9 in /  1013.8 hPa ESE 5.8 mph /  9.3 km/h 5.8 mph /  9.3 km/h 53 % 0 in /  0.0 mm
11:57 73 °F /  22.8 °C 54.9 °F /  12.7 °C 30 in /  1014.8 hPa SSE 6.9 mph /  11.1 km/h 6.9 mph /  11.1 km/h 53 % 0 in /  0.0 mm
12:02 73 °F /  22.8 °C 54.9 °F /  12.7 °C 30 in /  1014.8 hPa ENE 8.1 mph /  13.0 km/h 8.1 mph /  13.0 km/h 53 % 0 in /  0.0 mm
12:07 72.5 °F /  22.5 °C 54 °F /  12.2 °C 30 in /  1014.8 hPa ESE 5.8 mph /  9.3 km/h 5.9 mph /  9.5 km/h 52 % 0 in /  0.0 mm
12:12 73 °F /  22.8 °C 54.3 °F /  12.4 °C 29.9 in /  1013.8 hPa ESE 6.9 mph /  11.1 km/h 6.9 mph /  11.1 km/h 52 % 0 in /  0.0 mm
12:15 73.4 °F /  23.0 °C 54.1 °F /  12.3 °C 29.9 in /  1013.8 hPa SE 8.1 mph /  13.0 km/h 8.1 mph /  13.0 km/h 51 % 0 in /  0.0 mm
12:20 73.2 °F /  22.9 °C 54.5 °F /  12.5 °C 29.9 in /  1013.8 hPa ESE 5.9 mph /  9.5 km/h 5.9 mph /  9.5 km/h 52 % 0 in /  0.0 mm
12:25 73 °F /  22.8 °C 54.3 °F /  12.4 °C 29.9 in /  1013.8 hPa East 5.9 mph /  9.5 km/h 5.9 mph /  9.5 km/h 52 % 0 in /  0.0 mm
12:30 73.6 °F /  23.1 °C 53.2 °F /  11.8 °C 29.9 in /  1013.8 hPa ENE 5.8 mph /  9.3 km/h 5.8 mph /  9.3 km/h 49 % 0 in /  0.0 mm
12:35 73.6 °F /  23.1 °C 52.2 °F /  11.2 °C 29.9 in /  1013.8 hPa ESE 12.7 mph /  20.4 km/h 12.7 mph /  20.4 km/h 47 % 0 in /  0.0 mm
12:40 73.9 °F /  23.3 °C 53.1 °F /  11.7 °C 29.9 in /  1013.8 hPa ENE 7.4 mph /  11.9 km/h 7.4 mph /  11.9 km/h 48 % 0 in /  0.0 mm
12:45 74.1 °F /  23.4 °C 52 °F /  11.1 °C 29.9 in /  1013.8 hPa SE 9.8 mph /  15.8 km/h 9.8 mph /  15.8 km/h 46 % 0 in /  0.0 mm
12:50 75.2 °F /  24.0 °C 52.3 °F /  11.3 °C 29.9 in /  1013.8 hPa SSE 5.8 mph /  9.3 km/h 5.8 mph /  9.3 km/h 45 % 0 in /  0.0 mm
12:55 74.7 °F /  23.7 °C 52.5 °F /  11.4 °C 29.9 in /  1012.8 hPa North 8.1 mph /  13.0 km/h 8.1 mph /  13.0 km/h 46 % 0 in /  0.0 mm
13:00 74.5 °F /  23.6 °C 52.3 °F /  11.3 °C 29.9 in /  1012.8 hPa ESE 12.7 mph /  20.4 km/h 12.7 mph /  20.4 km/h 46 % 0 in /  0.0 mm
13:05 74.3 °F /  23.5 °C 51.1 °F /  10.6 °C 29.9 in /  1012.8 hPa NE 10.4 mph /  16.7 km/h 10.4 mph /  16.7 km/h 44 % 0 in /  0.0 mm
13:10 74.7 °F /  23.7 °C 52 °F /  11.1 °C 29.9 in /  1011.7 hPa North 6.2 mph /  10.0 km/h 6.2 mph /  10.0 km/h 45 % 0 in /  0.0 mm
13:15 75.4 °F /  24.1 °C 52.5 °F /  11.4 °C 29.9 in /  1011.7 hPa SE 10 mph /  16.1 km/h 10 mph /  16.1 km/h 45 % 0 in /  0.0 mm
13:20 75.2 °F /  24.0 °C 52.3 °F /  11.3 °C 29.9 in /  1011.7 hPa ENE 11.5 mph /  18.5 km/h 11.5 mph /  18.5 km/h 45 % 0 in /  0.0 mm
13:25 75.6 °F /  24.2 °C 52.2 °F /  11.2 °C 29.8 in /  1010.7 hPa East 6.9 mph /  11.1 km/h 6.9 mph /  11.1 km/h 44 % 0 in /  0.0 mm
13:30 75.7 °F /  24.3 °C 51.6 °F /  10.9 °C 29.8 in /  1010.7 hPa SSW 6.9 mph /  11.1 km/h 6.9 mph /  11.1 km/h 43 % 0 in /  0.0 mm
13:35 75.6 °F /  24.2 °C 52.2 °F /  11.2 °C 29.8 in /  1010.7 hPa North 11.5 mph /  18.5 km/h 11.5 mph /  18.5 km/h 44 % 0 in /  0.0 mm
13:40 75.4 °F /  24.1 °C 52.5 °F /  11.4 °C 29.9 in /  1011.7 hPa NNE 5.8 mph /  9.3 km/h 5.8 mph /  9.3 km/h 45 % 0 in /  0.0 mm
13:45 75.7 °F /  24.3 °C 52.9 °F /  11.6 °C 29.9 in /  1011.7 hPa ENE 8.5 mph /  13.7 km/h 8.5 mph /  13.7 km/h 45 % 0 in /  0.0 mm
13:50 75 °F /  23.9 °C 52.9 °F /  11.6 °C 29.9 in /  1011.7 hPa NE 5.8 mph /  9.3 km/h 5.8 mph /  9.3 km/h 46 % 0 in /  0.0 mm
13:55 74.7 °F /  23.7 °C 52.5 °F /  11.4 °C 29.9 in /  1011.7 hPa ESE 8.1 mph /  13.0 km/h 8.1 mph /  13.0 km/h 46 % 0 in /  0.0 mm
14:00 74.5 °F /  23.6 °C 52.3 °F /  11.3 °C 29.9 in /  1011.7 hPa East 6.9 mph /  11.1 km/h 6.9 mph /  11.1 km/h 46 % 0 in /  0.0 mm
14:05 74.3 °F /  23.5 °C 52.2 °F /  11.2 °C 29.9 in /  1011.7 hPa East 9.8 mph /  15.8 km/h 9.8 mph /  15.8 km/h 46 % 0 in /  0.0 mm
14:10 75.2 °F /  24.0 °C 53.1 °F /  11.7 °C 29.9 in /  1011.7 hPa ENE 8.1 mph /  13.0 km/h 8.1 mph /  13.0 km/h 46 % 0 in /  0.0 mm
14:15 74.7 °F /  23.7 °C 53.1 °F /  11.7 °C 29.9 in /  1011.7 hPa NE 9.2 mph /  14.8 km/h 9.2 mph /  14.8 km/h 47 % 0 in /  0.0 mm
14:20 74.7 °F /  23.7 °C 53.1 °F /  11.7 °C 29.9 in /  1011.7 hPa ENE 6.9 mph /  11.1 km/h 6.9 mph /  11.1 km/h 47 % 0 in /  0.0 mm
14:25 74.5 °F /  23.6 °C 53.4 °F /  11.9 °C 29.8 in /  1010.7 hPa ESE 4.9 mph /  7.9 km/h 4.9 mph /  7.9 km/h 48 % 0 in /  0.0 mm
14:30 75.6 °F /  24.2 °C 55 °F /  12.8 °C 29.8 in /  1010.7 hPa WNW 8.1 mph /  13.0 km/h 8.1 mph /  13.0 km/h 49 % 0 in /  0.0 mm
14:35 75.6 °F /  24.2 °C 55 °F /  12.8 °C 29.8 in /  1010.7 hPa ESE 8.1 mph /  13.0 km/h 8.1 mph /  13.0 km/h 49 % 0 in /  0.0 mm
14:40 75.7 °F /  24.3 °C 55.2 °F /  12.9 °C 29.9 in /  1011.7 hPa ESE 6.4 mph /  10.3 km/h 6.4 mph /  10.3 km/h 49 % 0 in /  0.0 mm
14:45 75.6 °F /  24.2 °C 55 °F /  12.8 °C 29.9 in /  1011.7 hPa ESE 6.9 mph /  11.1 km/h 6.9 mph /  11.1 km/h 49 % 0 in /  0.0 mm
14:50 75.7 °F /  24.3 °C 55.2 °F /  12.9 °C 29.9 in /  1011.7 hPa SE 5.8 mph /  9.3 km/h 5.8 mph /  9.3 km/h 49 % 0 in /  0.0 mm
14:55 76.6 °F /  24.8 °C 55.6 °F /  13.1 °C 29.9 in /  1011.7 hPa SW 3.5 mph /  5.6 km/h 3.5 mph /  5.6 km/h 48 % 0 in /  0.0 mm
15:00 78.1 °F /  25.6 °C 54.3 °F /  12.4 °C 29.9 in /  1011.7 hPa SSW 4.9 mph /  7.9 km/h 4.9 mph /  7.9 km/h 44 % 0 in /  0.0 mm
15:05 78.3 °F /  25.7 °C 54.7 °F /  12.6 °C 29.9 in /  1011.7 hPa SW 3.5 mph /  5.6 km/h 3.5 mph /  5.6 km/h 44 % 0 in /  0.0 mm
15:10 79.2 °F /  26.2 °C 54.7 °F /  12.6 °C 29.9 in /  1011.7 hPa SW 6.9 mph /  11.1 km/h 6.9 mph /  11.1 km/h 43 % 0 in /  0.0 mm
15:15 79.2 °F /  26.2 °C 54.1 °F /  12.3 °C 29.9 in /  1011.7 hPa WNW 5.8 mph /  9.3 km/h 5.8 mph /  9.3 km/h 42 % 0 in /  0.0 mm
15:20 79.7 °F /  26.5 °C 54.7 °F /  12.6 °C 29.9 in /  1011.7 hPa SSW 5.9 mph /  9.5 km/h 5.9 mph /  9.5 km/h 42 % 0 in /  0.0 mm
15:25 78.8 °F /  26.0 °C 53.1 °F /  11.7 °C 29.8 in /  1010.7 hPa South 10.4 mph /  16.7 km/h 10.4 mph /  16.7 km/h 41 % 0 in /  0.0 mm
15:30 78.8 °F /  26.0 °C 53.1 °F /  11.7 °C 29.8 in /  1010.7 hPa SW 9.2 mph /  14.8 km/h 9.2 mph /  14.8 km/h 41 % 0 in /  0.0 mm
15:35 78.8 °F /  26.0 °C 52.3 °F /  11.3 °C 29.8 in /  1010.7 hPa SSW 9.2 mph /  14.8 km/h 9.2 mph /  14.8 km/h 40 % 0 in /  0.0 mm
15:40 78.4 °F /  25.8 °C 52.2 °F /  11.2 °C 29.8 in /  1010.7 hPa SE 5.8 mph /  9.3 km/h 5.8 mph /  9.3 km/h 40 % 0 in /  0.0 mm
15:45 78.4 °F /  25.8 °C 52.9 °F /  11.6 °C 29.8 in /  1010.7 hPa SW 4.6 mph /  7.4 km/h 4.6 mph /  7.4 km/h 41 % 0 in /  0.0 mm
15:50 78.8 °F /  26.0 °C 53.1 °F /  11.7 °C 29.8 in /  1010.7 hPa WSW 3.5 mph /  5.6 km/h 3.5 mph /  5.6 km/h 41 % 0 in /  0.0 mm
15:55 78.8 °F /  26.0 °C 52.3 °F /  11.3 °C 29.8 in /  1010.7 hPa SSW 10.4 mph /  16.7 km/h 10.4 mph /  16.7 km/h 40 % 0 in /  0.0 mm
15:57 77.7 °F /  25.4 °C 51.4 °F /  10.8 °C 29.8 in /  1010.7 hPa SW 9.2 mph /  14.8 km/h 9.2 mph /  14.8 km/h 40 % 0 in /  0.0 mm
16:02 77.5 °F /  25.3 °C 52 °F /  11.1 °C 29.8 in /  1010.7 hPa SW 6.9 mph /  11.1 km/h 6.9 mph /  11.1 km/h 41 % 0 in /  0.0 mm
16:07 77 °F /  25.0 °C 50.7 °F /  10.4 °C 29.8 in /  1010.7 hPa SW 3.5 mph /  5.6 km/h 3.5 mph /  5.6 km/h 40 % 0 in /  0.0 mm
16:12 77 °F /  25.0 °C 50.7 °F /  10.4 °C 29.8 in /  1010.7 hPa SSW 10.5 mph /  16.9 km/h 10.5 mph /  16.9 km/h 40 % 0 in /  0.0 mm
16:17 76.6 °F /  24.8 °C 51.3 °F /  10.7 °C 29.8 in /  1010.7 hPa SSW 6.9 mph /  11.1 km/h 6.9 mph /  11.1 km/h 41 % 0 in /  0.0 mm
16:22 76.1 °F /  24.5 °C 50.7 °F /  10.4 °C 29.8 in /  1010.7 hPa WNW 9.2 mph /  14.8 km/h 9.2 mph /  14.8 km/h 41 % 0 in /  0.0 mm
16:27 73.6 °F /  23.1 °C 50.4 °F /  10.2 °C 29.9 in /  1011.7 hPa WNW 12.7 mph /  20.4 km/h 12.7 mph /  20.4 km/h 44 % 0 in /  0.0 mm
16:32 72.7 °F /  22.6 °C 50.7 °F /  10.4 °C 29.9 in /  1011.7 hPa SSW 9.2 mph /  14.8 km/h 9.2 mph /  14.8 km/h 46 % 0 in /  0.0 mm
16:37 72.1 °F /  22.3 °C 50.7 °F /  10.4 °C 29.9 in /  1011.7 hPa WNW 9.2 mph /  14.8 km/h 9.2 mph /  14.8 km/h 47 % 0 in /  0.0 mm
16:42 71.4 °F /  21.9 °C 50.7 °F /  10.4 °C 29.9 in /  1011.7 hPa NNW 12.7 mph /  20.4 km/h 12.7 mph /  20.4 km/h 48 % 0 in /  0.0 mm
16:47 70.3 °F /  21.3 °C 50.4 °F /  10.2 °C 29.9 in /  1011.7 hPa West 13.8 mph /  22.2 km/h 13.8 mph /  22.2 km/h 49 % 0 in /  0.0 mm
16:52 68.9 °F /  20.5 °C 51.1 °F /  10.6 °C 29.9 in /  1011.7 hPa East 12.7 mph /  20.4 km/h 12.7 mph /  20.4 km/h 53 % 0 in /  0.0 mm
16:57 67.3 °F /  19.6 °C 51.4 °F /  10.8 °C 29.9 in /  1011.7 hPa West 5.8 mph /  9.3 km/h 5.8 mph /  9.3 km/h 57 % 0 in /  0.0 mm
17:02 66.4 °F /  19.1 °C 51.6 °F /  10.9 °C 29.9 in /  1011.7 hPa WSW 5.8 mph /  9.3 km/h 5.8 mph /  9.3 km/h 59 % 0 in /  0.0 mm
17:07 65.5 °F /  18.6 °C 52.2 °F /  11.2 °C 29.9 in /  1011.7 hPa WSW 6.9 mph /  11.1 km/h 6.9 mph /  11.1 km/h 62 % 0 in /  0.0 mm
17:12 65.3 °F /  18.5 °C 52 °F /  11.1 °C 29.9 in /  1011.7 hPa WSW 4.6 mph /  7.4 km/h 4.6 mph /  7.4 km/h 62 % 0 in /  0.0 mm
17:17 65.7 °F /  18.7 °C 52.3 °F /  11.3 °C 29.9 in /  1011.7 hPa West 10.4 mph /  16.7 km/h 10.4 mph /  16.7 km/h 62 % 0 in /  0.0 mm
17:22 65.5 °F /  18.6 °C 52.5 °F /  11.4 °C 29.9 in /  1011.7 hPa WSW 8.1 mph /  13.0 km/h 8.1 mph /  13.0 km/h 63 % 0 in /  0.0 mm
17:27 65.3 °F /  18.5 °C 52 °F /  11.1 °C 29.9 in /  1011.7 hPa West 6.9 mph /  11.1 km/h 6.9 mph /  11.1 km/h 62 % 0 in /  0.0 mm
17:32 64.9 °F /  18.3 °C 52 °F /  11.1 °C 29.9 in /  1011.7 hPa WSW 5.8 mph /  9.3 km/h 5.8 mph /  9.3 km/h 63 % 0 in /  0.0 mm
17:37 64.6 °F /  18.1 °C 51.6 °F /  10.9 °C 29.9 in /  1011.7 hPa West 5.8 mph /  9.3 km/h 5.8 mph /  9.3 km/h 63 % 0 in /  0.0 mm
17:42 64.4 °F /  18.0 °C 51.4 °F /  10.8 °C 29.9 in /  1011.7 hPa WSW 5.8 mph /  9.3 km/h 5.8 mph /  9.3 km/h 63 % 0 in /  0.0 mm
17:47 63.7 °F /  17.6 °C 50.7 °F /  10.4 °C 29.9 in /  1011.7 hPa SW 4.6 mph /  7.4 km/h 4.6 mph /  7.4 km/h 63 % 0 in /  0.0 mm
17:52 63 °F /  17.2 °C 50.5 °F /  10.3 °C 29.9 in /  1011.7 hPa SW 8.1 mph /  13.0 km/h 8.1 mph /  13.0 km/h 64 % 0 in /  0.0 mm
17:57 63 °F /  17.2 °C 51.1 °F /  10.6 °C 29.9 in /  1011.7 hPa WSW 5.8 mph /  9.3 km/h 5.8 mph /  9.3 km/h 65 % 0 in /  0.0 mm
18:02 63 °F /  17.2 °C 51.8 °F /  11.0 °C 29.9 in /  1011.7 hPa WSW 4.6 mph /  7.4 km/h 4.6 mph /  7.4 km/h 67 % 0 in /  0.0 mm
18:07 62.6 °F /  17.0 °C 51.4 °F /  10.8 °C 29.9 in /  1011.7 hPa WSW 4.6 mph /  7.4 km/h 4.6 mph /  7.4 km/h 67 % 0 in /  0.0 mm
18:12 62.6 °F /  17.0 °C 52 °F /  11.1 °C 29.9 in /  1011.7 hPa WSW 5.8 mph /  9.3 km/h 5.8 mph /  9.3 km/h 68 % 0 in /  0.0 mm
18:17 62.6 °F /  17.0 °C 52 °F /  11.1 °C 29.9 in /  1011.7 hPa SW 4.6 mph /  7.4 km/h 4.6 mph /  7.4 km/h 68 % 0 in /  0.0 mm
18:22 62.6 °F /  17.0 °C 52 °F /  11.1 °C 29.9 in /  1011.7 hPa West 5.8 mph /  9.3 km/h 5.8 mph /  9.3 km/h 68 % 0 in /  0.0 mm
18:27 62.4 °F /  16.9 °C 52.5 °F /  11.4 °C 29.9 in /  1011.7 hPa SW 3.5 mph /  5.6 km/h 3.5 mph /  5.6 km/h 70 % 0 in /  0.0 mm
18:32 62.2 °F /  16.8 °C 52.7 °F /  11.5 °C 29.9 in /  1011.7 hPa West 3.1 mph /  5.0 km/h 3.1 mph /  5.0 km/h 71 % 0 in /  0.0 mm
18:37 62.1 °F /  16.7 °C 52.2 °F /  11.2 °C 29.9 in /  1011.7 hPa SW 5.6 mph /  9.0 km/h 5.6 mph /  9.0 km/h 70 % 0 in /  0.0 mm
18:42 62.1 °F /  16.7 °C 52.5 °F /  11.4 °C 29.9 in /  1012.8 hPa SW 2.9 mph /  4.7 km/h 2.9 mph /  4.7 km/h 71 % 0 in /  0.0 mm
18:47 61.9 °F /  16.6 °C 52.3 °F /  11.3 °C 29.9 in /  1012.8 hPa SW 3.8 mph /  6.1 km/h 3.8 mph /  6.1 km/h 71 % 0 in /  0.0 mm
18:52 61.9 °F /  16.6 °C 52.3 °F /  11.3 °C 29.9 in /  1012.8 hPa SW 3.5 mph /  5.6 km/h 3.5 mph /  5.6 km/h 71 % 0 in /  0.0 mm
18:57 62.1 °F /  16.7 °C 52.5 °F /  11.4 °C 29.9 in /  1012.8 hPa WSW 4.6 mph /  7.4 km/h 4.6 mph /  7.4 km/h 71 % 0 in /  0.0 mm
19:02 62.2 °F /  16.8 °C 53.4 °F /  11.9 °C 29.9 in /  1012.8 hPa SW 1.2 mph /  1.9 km/h 1.2 mph /  1.9 km/h 73 % 0 in /  0.0 mm
19:07 62.4 °F /  16.9 °C 53.2 °F /  11.8 °C 29.9 in /  1012.8 hPa WSW 3.5 mph /  5.6 km/h 3.5 mph /  5.6 km/h 72 % 0 in /  0.0 mm
19:12 62.4 °F /  16.9 °C 53.2 °F /  11.8 °C 29.9 in /  1013.8 hPa SW 2.4 mph /  3.9 km/h 2.4 mph /  3.9 km/h 72 % 0 in /  0.0 mm
19:17 62.2 °F /  16.8 °C 52.3 °F /  11.3 °C 29.9 in /  1013.8 hPa WNW 3.5 mph /  5.6 km/h 3.5 mph /  5.6 km/h 70 % 0 in /  0.0 mm
19:20 55.2 °F /  12.9 °C 45.1 °F /  7.3 °C 30 in /  1015.8 hPa West 3 mph /  4.8 km/h 5 mph /  8.0 km/h 69 % 0.05 in /  1.3 mm
19:22 62.4 °F /  16.9 °C 52.9 °F /  11.6 °C 29.9 in /  1013.8 hPa West 2.3 mph /  3.7 km/h 2.3 mph /  3.7 km/h 71 % 0 in /  0.0 mm
19:27 62.6 °F /  17.0 °C 52.7 °F /  11.5 °C 29.9 in /  1012.8 hPa West 2.3 mph /  3.7 km/h 2.3 mph /  3.7 km/h 70 % 0 in /  0.0 mm
19:30 54.9 °F /  12.7 °C 45 °F /  7.2 °C 30 in /  1015.8 hPa West 2 mph /  3.2 km/h 2 mph /  3.2 km/h 69 % 0.05 in /  1.3 mm
19:32 62.6 °F /  17.0 °C 52.7 °F /  11.5 °C 29.9 in /  1012.8 hPa WSW 2.3 mph /  3.7 km/h 2.3 mph /  3.7 km/h 70 % 0 in /  0.0 mm
19:37 62.6 °F /  17.0 °C 53.1 °F /  11.7 °C 29.9 in /  1012.8 hPa SW 1.6 mph /  2.6 km/h   71 % 0 in /  0.0 mm
19:40 54.7 °F /  12.6 °C 44.8 °F /  7.1 °C 30 in /  1015.8 hPa Calm   3 mph /  4.8 km/h 69 % 0 in /  0.0 mm
19:42 62.4 °F /  16.9 °C 53.6 °F /  12.0 °C 29.9 in /  1012.8 hPa SW 2.3 mph /  3.7 km/h 2.3 mph /  3.7 km/h 73 % 0 in /  0.0 mm
19:47 62.1 °F /  16.7 °C 52.9 °F /  11.6 °C 29.9 in /  1012.8 hPa WSW 2.3 mph /  3.7 km/h 2.3 mph /  3.7 km/h 72 % 0 in /  0.0 mm
19:50 54.5 °F /  12.5 °C 44.2 °F /  6.8 °C 30 in /  1015.8 hPa West 1 mph /  1.6 km/h 2 mph /  3.2 km/h 68 % 0 in /  0.0 mm
19:52 62.1 °F /  16.7 °C 53.8 °F /  12.1 °C 29.9 in /  1012.8 hPa NW 1.6 mph /  2.6 km/h 1.6 mph /  2.6 km/h 74 % 0 in /  0.0 mm
19:57 61.9 °F /  16.6 °C 53.4 °F /  11.9 °C 29.9 in /  1012.8 hPa Calm     74 % 0 in /  0.0 mm
20:00 54.1 °F /  12.3 °C 43.9 °F /  6.6 °C 30 in /  1015.8 hPa West 3 mph /  4.8 km/h 3 mph /  4.8 km/h 68 % 0 in /  0.0 mm
20:02 61.9 °F /  16.6 °C 53.4 °F /  11.9 °C 29.9 in /  1012.8 hPa North 3.5 mph /  5.6 km/h 3.5 mph /  5.6 km/h 74 % 0 in /  0.0 mm
20:07 61.9 °F /  16.6 °C 54 °F /  12.2 °C 29.9 in /  1012.8 hPa East 1.2 mph /  1.9 km/h   75 % 0 in /  0.0 mm
20:10 54 °F /  12.2 °C 43.5 °F /  6.4 °C 30 in /  1016.8 hPa West 2 mph /  3.2 km/h 3 mph /  4.8 km/h 68 % 0 in /  0.0 mm
20:12 61.9 °F /  16.6 °C 53.4 °F /  11.9 °C 29.9 in /  1011.7 hPa NNE 2.3 mph /  3.7 km/h   74 % 0 in /  0.0 mm
20:13 61.9 °F /  16.6 °C 54 °F /  12.2 °C 29.9 in /  1011.7 hPa North 2.3 mph /  3.7 km/h 2.3 mph /  3.7 km/h 75 % 0 in /  0.0 mm
20:18 61.7 °F /  16.5 °C 53.8 °F /  12.1 °C 29.9 in /  1011.7 hPa West 2.3 mph /  3.7 km/h 2.3 mph /  3.7 km/h 75 % 0 in /  0.0 mm
20:20 53.8 °F /  12.1 °C 43.2 °F /  6.2 °C 30 in /  1016.8 hPa WSW 1 mph /  1.6 km/h 3 mph /  4.8 km/h 67 % 0 in /  0.0 mm
20:23 61.9 °F /  16.6 °C 54.1 °F /  12.3 °C 29.9 in /  1011.7 hPa WSW 2.2 mph /  3.5 km/h   76 % 0 in /  0.0 mm
20:28 61.5 °F /  16.4 °C 54.1 °F /  12.3 °C 29.9 in /  1011.7 hPa SW 1.2 mph /  1.9 km/h   77 % 0 in /  0.0 mm
20:30 53.6 °F /  12.0 °C 43 °F /  6.1 °C 30 in /  1016.8 hPa Calm   2 mph /  3.2 km/h 67 % 0 in /  0.0 mm
20:33 61 °F /  16.1 °C 53.4 °F /  11.9 °C 29.9 in /  1011.7 hPa WSW 2.9 mph /  4.7 km/h 2.9 mph /  4.7 km/h 76 % 0 in /  0.0 mm
20:38 60.6 °F /  15.9 °C 53.1 °F /  11.7 °C 29.9 in /  1013.8 hPa WSW 2.9 mph /  4.7 km/h 2.9 mph /  4.7 km/h 76 % 0 in /  0.0 mm
20:40 53.2 °F /  11.8 °C 42.6 °F /  5.9 °C 30 in /  1016.8 hPa WSW 2 mph /  3.2 km/h 3 mph /  4.8 km/h 67 % 0 in /  0.0 mm
20:43 60.4 °F /  15.8 °C 52.9 °F /  11.6 °C 29.9 in /  1013.8 hPa SW 2.6 mph /  4.2 km/h 2.6 mph /  4.2 km/h 76 % 0 in /  0.0 mm
20:48 60.4 °F /  15.8 °C 53.2 °F /  11.8 °C 29.9 in /  1013.8 hPa WSW 2.3 mph /  3.7 km/h 2.3 mph /  3.7 km/h 77 % 0 in /  0.0 mm
20:50 52.5 °F /  11.4 °C 42.3 °F /  5.7 °C 30 in /  1016.8 hPa WSW 2 mph /  3.2 km/h 3 mph /  4.8 km/h 68 % 0 in /  0.0 mm
20:53 60.4 °F /  15.8 °C 53.2 °F /  11.8 °C 29.9 in /  1013.8 hPa West 2.3 mph /  3.7 km/h 2.3 mph /  3.7 km/h 77 % 0 in /  0.0 mm
20:58 60.6 °F /  15.9 °C 53.4 °F /  11.9 °C 29.9 in /  1013.8 hPa West 2.3 mph /  3.7 km/h 2.3 mph /  3.7 km/h 77 % 0 in /  0.0 mm
21:00 52.7 °F /  11.5 °C 42.1 °F /  5.6 °C 30 in /  1016.8 hPa WSW 2 mph /  3.2 km/h 3 mph /  4.8 km/h 67 % 0 in /  0.0 mm
21:03 60.6 °F /  15.9 °C 53.8 °F /  12.1 °C 29.9 in /  1013.8 hPa SSW 2.3 mph /  3.7 km/h 2.3 mph /  3.7 km/h 78 % 0 in /  0.0 mm
21:08 60.6 °F /  15.9 °C 53.8 °F /  12.1 °C 29.9 in /  1013.8 hPa WSW 3.5 mph /  5.6 km/h 3.5 mph /  5.6 km/h 78 % 0 in /  0.0 mm
21:10 52.5 °F /  11.4 °C 42.3 °F /  5.7 °C 30 in /  1016.8 hPa Calm   2 mph /  3.2 km/h 68 % 0 in /  0.0 mm
21:13 60.4 °F /  15.8 °C 53.2 °F /  11.8 °C 29.9 in /  1013.8 hPa SW 4.6 mph /  7.4 km/h 4.6 mph /  7.4 km/h 77 % 0 in /  0.0 mm
21:18 60.1 °F /  15.6 °C 52.5 °F /  11.4 °C 29.9 in /  1013.8 hPa WSW 5.8 mph /  9.3 km/h 5.8 mph /  9.3 km/h 76 % 0 in /  0.0 mm
21:20 52.2 °F /  11.2 °C 41.9 °F /  5.5 °C 30 in /  1016.8 hPa WSW 1 mph /  1.6 km/h 2 mph /  3.2 km/h 68 % 0 in /  0.0 mm
21:23 60.1 °F /  15.6 °C 52.5 °F /  11.4 °C 29.9 in /  1013.8 hPa West 3.5 mph /  5.6 km/h 3.5 mph /  5.6 km/h 76 % 0 in /  0.0 mm
21:28 60.1 °F /  15.6 °C 52.5 °F /  11.4 °C 29.9 in /  1013.8 hPa NW 4.6 mph /  7.4 km/h 4.6 mph /  7.4 km/h 76 % 0 in /  0.0 mm
21:30 51.6 °F /  10.9 °C 41 °F /  5.0 °C 30 in /  1015.8 hPa WSW 3 mph /  4.8 km/h 3 mph /  4.8 km/h 67 % 0 in /  0.0 mm
21:33 59.9 °F /  15.5 °C 52.3 °F /  11.3 °C 29.9 in /  1013.8 hPa WSW 6 mph /  9.7 km/h 6 mph /  9.7 km/h 76 % 0 in /  0.0 mm
21:38 59.7 °F /  15.4 °C 52.2 °F /  11.2 °C 29.9 in /  1013.8 hPa WSW 5.6 mph /  9.0 km/h 5.6 mph /  9.0 km/h 76 % 0 in /  0.0 mm
21:40 51.3 °F /  10.7 °C 41.2 °F /  5.1 °C 30 in /  1015.8 hPa WSW 2 mph /  3.2 km/h 3 mph /  4.8 km/h 68 % 0 in /  0.0 mm
21:43 59.5 °F /  15.3 °C 52 °F /  11.1 °C 29.9 in /  1013.8 hPa WSW 4.6 mph /  7.4 km/h 4.6 mph /  7.4 km/h 76 % 0 in /  0.0 mm
21:48 59.4 °F /  15.2 °C 51.4 °F /  10.8 °C 29.9 in /  1013.8 hPa WSW 5.8 mph /  9.3 km/h 5.8 mph /  9.3 km/h 75 % 0 in /  0.0 mm
21:53 59 °F /  15.0 °C 51.4 °F /  10.8 °C 29.9 in /  1013.8 hPa SW 9.7 mph /  15.6 km/h 9.7 mph /  15.6 km/h 76 % 0 in /  0.0 mm
21:58 58.8 °F /  14.9 °C 50.9 °F /  10.5 °C 29.9 in /  1013.8 hPa WSW 5.4 mph /  8.7 km/h 5.4 mph /  8.7 km/h 75 % 0.05 in /  1.3 mm
22:00 51.3 °F /  10.7 °C 40.6 °F /  4.8 °C 30 in /  1016.8 hPa West 1 mph /  1.6 km/h 4 mph /  6.4 km/h 67 % 0 in /  0.0 mm
22:03 58.5 °F /  14.7 °C 50.5 °F /  10.3 °C 29.9 in /  1013.8 hPa West 6.9 mph /  11.1 km/h 6.9 mph /  11.1 km/h 75 % 0.05 in /  1.3 mm
22:08 58.3 °F /  14.6 °C 50.7 °F /  10.4 °C 29.9 in /  1013.8 hPa SW 3.6 mph /  5.8 km/h 3.6 mph /  5.8 km/h 76 % 0.05 in /  1.3 mm
22:10 51.1 °F /  10.6 °C 40.8 °F /  4.9 °C 30 in /  1016.8 hPa WSW 1 mph /  1.6 km/h 2 mph /  3.2 km/h 68 % 0 in /  0.0 mm
22:13 58.1 °F /  14.5 °C 50.5 °F /  10.3 °C 29.9 in /  1013.8 hPa SW 3.1 mph /  5.0 km/h 3.1 mph /  5.0 km/h 76 % 0.05 in /  1.3 mm
22:18 57.9 °F /  14.4 °C 50 °F /  10.0 °C 29.9 in /  1013.8 hPa WSW 4.7 mph /  7.6 km/h 4.7 mph /  7.6 km/h 75 % 0.05 in /  1.3 mm
22:20 51.1 °F /  10.6 °C 40.8 °F /  4.9 °C 30 in /  1016.8 hPa Calm   2 mph /  3.2 km/h 68 % 0 in /  0.0 mm
22:23 57.7 °F /  14.3 °C 49.8 °F /  9.9 °C 29.9 in /  1013.8 hPa West 3.5 mph /  5.6 km/h 3.5 mph /  5.6 km/h 75 % 0.05 in /  1.3 mm
22:28 57.6 °F /  14.2 °C 49.6 °F /  9.8 °C 29.9 in /  1013.8 hPa WSW 4.6 mph /  7.4 km/h 4.6 mph /  7.4 km/h 75 % 0.05 in /  1.3 mm
22:30 50.5 °F /  10.3 °C 40.5 °F /  4.7 °C 30.1 in /  1017.8 hPa ENE 2 mph /  3.2 km/h 3 mph /  4.8 km/h 68 % 0 in /  0.0 mm
22:33 57.6 °F /  14.2 °C 49.6 °F /  9.8 °C 29.9 in /  1013.8 hPa WSW 4.6 mph /  7.4 km/h 4.6 mph /  7.4 km/h 75 % 0.05 in /  1.3 mm
22:38 57.4 °F /  14.1 °C 49.8 °F /  9.9 °C 30 in /  1014.8 hPa SW 4.6 mph /  7.4 km/h 4.6 mph /  7.4 km/h 76 % 0.05 in /  1.3 mm
22:40 50.5 °F /  10.3 °C 40.5 °F /  4.7 °C 30.1 in /  1017.8 hPa WSW 2 mph /  3.2 km/h 3 mph /  4.8 km/h 68 % 0 in /  0.0 mm
22:43 57.2 °F /  14.0 °C 49.3 °F /  9.6 °C 30 in /  1014.8 hPa WSW 2.4 mph /  3.9 km/h 2.4 mph /  3.9 km/h 75 % 0.05 in /  1.3 mm
22:48 57 °F /  13.9 °C 49.3 °F /  9.6 °C 30 in /  1014.8 hPa NW 3.5 mph /  5.6 km/h 3.5 mph /  5.6 km/h 75 % 0.05 in /  1.3 mm
22:50 50.4 °F /  10.2 °C 40.3 °F /  4.6 °C 30.1 in /  1017.8 hPa Calm   3 mph /  4.8 km/h 68 % 0 in /  0.0 mm
22:53 57 °F /  13.9 °C 49.3 °F /  9.6 °C 30 in /  1015.8 hPa West 2.3 mph /  3.7 km/h 2.4 mph /  3.9 km/h 75 % 0.05 in /  1.3 mm
22:58 57 °F /  13.9 °C 48.7 °F /  9.3 °C 30 in /  1015.8 hPa West 3.5 mph /  5.6 km/h 3.5 mph /  5.6 km/h 74 % 0 in /  0.0 mm
23:00 50.4 °F /  10.2 °C 40.3 °F /  4.6 °C 30.1 in /  1017.8 hPa WSW 1 mph /  1.6 km/h 2 mph /  3.2 km/h 68 % 0 in /  0.0 mm
23:03 56.8 °F /  13.8 °C 48.6 °F /  9.2 °C 30 in /  1015.8 hPa NNW 2.3 mph /  3.7 km/h 2.3 mph /  3.7 km/h 74 % 0 in /  0.0 mm
23:09 56.8 °F /  13.8 °C 48.6 °F /  9.2 °C 30 in /  1015.8 hPa WNW 3.5 mph /  5.6 km/h 3.5 mph /  5.6 km/h 74 % 0 in /  0.0 mm
23:10 50.4 °F /  10.2 °C 40.3 °F /  4.6 °C 30.1 in /  1017.8 hPa West 1 mph /  1.6 km/h 2 mph /  3.2 km/h 68 % 0 in /  0.0 mm
23:14 56.7 °F /  13.7 °C 48 °F /  8.9 °C 30 in /  1015.8 hPa SW 5.8 mph /  9.3 km/h 5.8 mph /  9.3 km/h 73 % 0 in /  0.0 mm
23:19 56.7 °F /  13.7 °C 48 °F /  8.9 °C 30 in /  1015.8 hPa West 3.5 mph /  5.6 km/h 3.5 mph /  5.6 km/h 73 % 0 in /  0.0 mm
23:20 50 °F /  10.0 °C 39.7 °F /  4.3 °C 30.1 in /  1017.8 hPa SW 1 mph /  1.6 km/h 2 mph /  3.2 km/h 68 % 0 in /  0.0 mm
23:24 56.5 °F /  13.6 °C 47.7 °F /  8.7 °C 30 in /  1015.8 hPa WSW 4.3 mph /  6.9 km/h 4.3 mph /  6.9 km/h 72 % 0 in /  0.0 mm
23:29 56.3 °F /  13.5 °C 47.5 °F /  8.6 °C 30 in /  1015.8 hPa WNW 3.5 mph /  5.6 km/h 3.5 mph /  5.6 km/h 72 % 0 in /  0.0 mm
23:30 50 °F /  10.0 °C 39.7 °F /  4.3 °C 30.1 in /  1018.8 hPa SW 2 mph /  3.2 km/h 2 mph /  3.2 km/h 68 % 0 in /  0.0 mm
23:34 56.1 °F /  13.4 °C 47.1 °F /  8.4 °C 30 in /  1015.8 hPa West 2.3 mph /  3.7 km/h 2.3 mph /  3.7 km/h 72 % 0 in /  0.0 mm
23:39 55.9 °F /  13.3 °C 46.9 °F /  8.3 °C 30 in /  1015.8 hPa SW 2.3 mph /  3.7 km/h 2.3 mph /  3.7 km/h 72 % 0 in /  0.0 mm
23:40 50 °F /  10.0 °C 40.3 °F /  4.6 °C 30 in /  1016.8 hPa Calm   2 mph /  3.2 km/h 69 % 0 in /  0.0 mm
23:44 55.8 °F /  13.2 °C 46.6 °F /  8.1 °C 30 in /  1015.8 hPa WSW 4.6 mph /  7.4 km/h 4.6 mph /  7.4 km/h 71 % 0 in /  0.0 mm
23:49 55.8 °F /  13.2 °C 46.6 °F /  8.1 °C 30 in /  1015.8 hPa West 2.3 mph /  3.7 km/h 2.3 mph /  3.7 km/h 71 % 0 in /  0.0 mm
23:50 50.2 °F /  10.1 °C 40.5 °F /  4.7 °C 30 in /  1016.8 hPa NNW 2 mph /  3.2 km/h 3 mph /  4.8 km/h 69 % 0 in /  0.0 mm
23:54 55.6 °F /  13.1 °C 45.9 °F /  7.7 °C 30 in /  1015.8 hPa SW 2.3 mph /  3.7 km/h 2.3 mph /  3.7 km/h 70 % 0 in /  0.0 mm
23:59 55.4 °F /  13.0 °C 46.2 °F /  7.9 °C 30 in /  1015.8 hPa West 2 mph /  3.2 km/h   71 % 0 in /  0.0 mm
Meteo Sesrovires
Elogis d' Weather Underground - 3.75 mb

Guio original per  Jim McMurry - jmcmurry@mwt.net Adaptat per a la plantilla per  Wim van der Kuil - Leuven-Template.eu

Trobareu la nostra informacio del temps tambe a:

Weather Underground

AWEKAS